sensor_id;sensor_type;location;lat;lon;timestamp;P1;durP1;ratioP1;P2;durP2;ratioP2
51459;SDS011;37534;39.772;2.718;2022-10-16T00:01:09;4.53;;;1.77;;
51459;SDS011;37534;39.772;2.718;2022-10-16T00:03:37;1.35;;;1.30;;
51459;SDS011;37534;39.772;2.718;2022-10-16T00:06:03;3.67;;;1.33;;
51459;SDS011;37534;39.772;2.718;2022-10-16T00:08:30;3.35;;;1.55;;
51459;SDS011;37534;39.772;2.718;2022-10-16T00:11:00;3.75;;;1.88;;
51459;SDS011;37534;39.772;2.718;2022-10-16T00:13:28;1.20;;;1.17;;
51459;SDS011;37534;39.772;2.718;2022-10-16T00:15:55;3.65;;;1.45;;
51459;SDS011;37534;39.772;2.718;2022-10-16T00:18:24;2.30;;;1.50;;
51459;SDS011;37534;39.772;2.718;2022-10-16T00:20:49;2.55;;;1.67;;
51459;SDS011;37534;39.772;2.718;2022-10-16T00:23:15;2.80;;;1.48;;
51459;SDS011;37534;39.772;2.718;2022-10-16T00:25:41;2.20;;;1.73;;
51459;SDS011;37534;39.772;2.718;2022-10-16T00:28:06;2.60;;;2.03;;
51459;SDS011;37534;39.772;2.718;2022-10-16T00:30:32;2.53;;;2.05;;
51459;SDS011;37534;39.772;2.718;2022-10-16T00:32:57;4.10;;;2.20;;
51459;SDS011;37534;39.772;2.718;2022-10-16T00:35:23;1.95;;;1.80;;
51459;SDS011;37534;39.772;2.718;2022-10-16T00:37:48;3.35;;;2.00;;
51459;SDS011;37534;39.772;2.718;2022-10-16T00:40:14;3.03;;;2.13;;
51459;SDS011;37534;39.772;2.718;2022-10-16T00:42:40;2.97;;;1.50;;
51459;SDS011;37534;39.772;2.718;2022-10-16T00:45:06;4.10;;;2.15;;
51459;SDS011;37534;39.772;2.718;2022-10-16T00:47:38;3.15;;;1.10;;
51459;SDS011;37534;39.772;2.718;2022-10-16T00:52:52;4.30;;;1.30;;
51459;SDS011;37534;39.772;2.718;2022-10-16T00:55:18;4.07;;;1.50;;
51459;SDS011;37534;39.772;2.718;2022-10-16T00:57:44;4.35;;;1.70;;
51459;SDS011;37534;39.772;2.718;2022-10-16T01:00:11;0.93;;;0.90;;
51459;SDS011;37534;39.772;2.718;2022-10-16T01:02:39;3.53;;;1.75;;
51459;SDS011;37534;39.772;2.718;2022-10-16T01:05:05;0.98;;;0.90;;
51459;SDS011;37534;39.772;2.718;2022-10-16T01:10:35;6.43;;;1.77;;
51459;SDS011;37534;39.772;2.718;2022-10-16T01:13:35;2.25;;;1.70;;
51459;SDS011;37534;39.772;2.718;2022-10-16T01:19:01;2.05;;;1.33;;
51459;SDS011;37534;39.772;2.718;2022-10-16T01:21:36;2.90;;;1.40;;
51459;SDS011;37534;39.772;2.718;2022-10-16T01:27:11;2.55;;;1.38;;
51459;SDS011;37534;39.772;2.718;2022-10-16T01:29:42;3.55;;;1.70;;
51459;SDS011;37534;39.772;2.718;2022-10-16T01:32:14;1.02;;;0.85;;
51459;SDS011;37534;39.772;2.718;2022-10-16T01:35:14;1.20;;;1.13;;
51459;SDS011;37534;39.772;2.718;2022-10-16T01:37:51;2.15;;;1.10;;
51459;SDS011;37534;39.772;2.718;2022-10-16T01:40:28;3.55;;;1.30;;
51459;SDS011;37534;39.772;2.718;2022-10-16T01:43:02;2.45;;;1.15;;
51459;SDS011;37534;39.772;2.718;2022-10-16T01:45:35;1.63;;;1.38;;
51459;SDS011;37534;39.772;2.718;2022-10-16T01:48:02;1.98;;;0.93;;
51459;SDS011;37534;39.772;2.718;2022-10-16T01:50:33;1.50;;;1.13;;
51459;SDS011;37534;39.772;2.718;2022-10-16T01:53:02;4.82;;;1.30;;
51459;SDS011;37534;39.772;2.718;2022-10-16T01:55:33;2.63;;;1.38;;
51459;SDS011;37534;39.772;2.718;2022-10-16T01:58:03;8.88;;;1.30;;
51459;SDS011;37534;39.772;2.718;2022-10-16T02:00:32;3.45;;;1.42;;
51459;SDS011;37534;39.772;2.718;2022-10-16T02:02:58;9.93;;;1.67;;
51459;SDS011;37534;39.772;2.718;2022-10-16T02:05:30;2.10;;;1.17;;
51459;SDS011;37534;39.772;2.718;2022-10-16T02:07:59;3.20;;;1.17;;
51459;SDS011;37534;39.772;2.718;2022-10-16T02:10:25;3.40;;;1.65;;
51459;SDS011;37534;39.772;2.718;2022-10-16T02:13:00;4.65;;;1.60;;
51459;SDS011;37534;39.772;2.718;2022-10-16T02:15:31;8.90;;;1.75;;
51459;SDS011;37534;39.772;2.718;2022-10-16T02:17:56;2.15;;;1.45;;
51459;SDS011;37534;39.772;2.718;2022-10-16T02:20:23;3.25;;;1.58;;
51459;SDS011;37534;39.772;2.718;2022-10-16T02:22:52;1.83;;;1.10;;
51459;SDS011;37534;39.772;2.718;2022-10-16T02:25:24;12.38;;;1.40;;
51459;SDS011;37534;39.772;2.718;2022-10-16T02:28:02;3.58;;;1.75;;
51459;SDS011;37534;39.772;2.718;2022-10-16T02:33:05;1.45;;;1.13;;
51459;SDS011;37534;39.772;2.718;2022-10-16T02:35:34;2.38;;;1.50;;
51459;SDS011;37534;39.772;2.718;2022-10-16T02:38:01;5.60;;;1.27;;
51459;SDS011;37534;39.772;2.718;2022-10-16T02:40:27;13.63;;;1.88;;
51459;SDS011;37534;39.772;2.718;2022-10-16T02:42:53;9.93;;;1.70;;
51459;SDS011;37534;39.772;2.718;2022-10-16T02:45:20;1.48;;;1.38;;
51459;SDS011;37534;39.772;2.718;2022-10-16T02:47:46;3.28;;;1.42;;
51459;SDS011;37534;39.772;2.718;2022-10-16T02:50:11;2.22;;;1.35;;
51459;SDS011;37534;39.772;2.718;2022-10-16T02:52:37;3.75;;;1.60;;
51459;SDS011;37534;39.772;2.718;2022-10-16T02:55:02;3.13;;;1.92;;
51459;SDS011;37534;39.772;2.718;2022-10-16T02:57:28;3.58;;;1.27;;
51459;SDS011;37534;39.772;2.718;2022-10-16T02:59:54;1.50;;;1.17;;
51459;SDS011;37534;39.772;2.718;2022-10-16T03:02:20;2.35;;;1.55;;
51459;SDS011;37534;39.772;2.718;2022-10-16T03:04:46;6.35;;;1.83;;
51459;SDS011;37534;39.772;2.718;2022-10-16T03:07:11;11.60;;;2.03;;
51459;SDS011;37534;39.772;2.718;2022-10-16T03:09:37;4.32;;;1.48;;
51459;SDS011;37534;39.772;2.718;2022-10-16T03:12:02;2.35;;;1.48;;
51459;SDS011;37534;39.772;2.718;2022-10-16T03:14:28;3.10;;;1.40;;
51459;SDS011;37534;39.772;2.718;2022-10-16T03:16:53;3.28;;;1.45;;
51459;SDS011;37534;39.772;2.718;2022-10-16T03:19:19;4.72;;;2.00;;
51459;SDS011;37534;39.772;2.718;2022-10-16T03:21:44;7.30;;;2.83;;
51459;SDS011;37534;39.772;2.718;2022-10-16T03:24:10;4.97;;;1.30;;
51459;SDS011;37534;39.772;2.718;2022-10-16T03:26:36;5.68;;;1.80;;
51459;SDS011;37534;39.772;2.718;2022-10-16T03:29:02;1.50;;;1.30;;
51459;SDS011;37534;39.772;2.718;2022-10-16T03:31:28;7.15;;;2.28;;
51459;SDS011;37534;39.772;2.718;2022-10-16T03:33:54;20.58;;;2.50;;
51459;SDS011;37534;39.772;2.718;2022-10-16T03:36:19;4.22;;;1.85;;
51459;SDS011;37534;39.772;2.718;2022-10-16T03:38:45;2.05;;;1.23;;
51459;SDS011;37534;39.772;2.718;2022-10-16T03:41:10;5.05;;;1.88;;
51459;SDS011;37534;39.772;2.718;2022-10-16T03:43:36;4.32;;;1.10;;
51459;SDS011;37534;39.772;2.718;2022-10-16T03:46:01;2.05;;;1.40;;
51459;SDS011;37534;39.772;2.718;2022-10-16T03:48:27;3.20;;;1.20;;
51459;SDS011;37534;39.772;2.718;2022-10-16T03:50:52;1.88;;;1.15;;
51459;SDS011;37534;39.772;2.718;2022-10-16T03:53:18;2.15;;;1.00;;
51459;SDS011;37534;39.772;2.718;2022-10-16T03:55:43;5.35;;;1.40;;
51459;SDS011;37534;39.772;2.718;2022-10-16T03:58:10;2.65;;;0.90;;
51459;SDS011;37534;39.772;2.718;2022-10-16T04:00:39;2.60;;;1.35;;
51459;SDS011;37534;39.772;2.718;2022-10-16T04:05:33;7.93;;;1.50;;
51459;SDS011;37534;39.772;2.718;2022-10-16T04:07:58;5.63;;;1.10;;
51459;SDS011;37534;39.772;2.718;2022-10-16T04:10:24;4.10;;;1.50;;
51459;SDS011;37534;39.772;2.718;2022-10-16T04:12:49;3.83;;;1.05;;
51459;SDS011;37534;39.772;2.718;2022-10-16T04:15:15;3.88;;;1.63;;
51459;SDS011;37534;39.772;2.718;2022-10-16T04:17:41;2.33;;;1.30;;
51459;SDS011;37534;39.772;2.718;2022-10-16T04:20:06;4.03;;;0.82;;
51459;SDS011;37534;39.772;2.718;2022-10-16T04:22:32;4.70;;;1.40;;
51459;SDS011;37534;39.772;2.718;2022-10-16T04:24:57;4.10;;;1.60;;
51459;SDS011;37534;39.772;2.718;2022-10-16T04:27:23;2.53;;;1.08;;
51459;SDS011;37534;39.772;2.718;2022-10-16T04:29:49;2.55;;;1.42;;
51459;SDS011;37534;39.772;2.718;2022-10-16T04:32:14;6.00;;;1.15;;
51459;SDS011;37534;39.772;2.718;2022-10-16T04:34:40;3.45;;;1.60;;
51459;SDS011;37534;39.772;2.718;2022-10-16T04:37:06;2.35;;;1.30;;
51459;SDS011;37534;39.772;2.718;2022-10-16T04:39:31;7.97;;;2.03;;
51459;SDS011;37534;39.772;2.718;2022-10-16T04:41:57;5.95;;;1.48;;
51459;SDS011;37534;39.772;2.718;2022-10-16T04:44:22;2.55;;;1.17;;
51459;SDS011;37534;39.772;2.718;2022-10-16T04:46:50;8.02;;;2.08;;
51459;SDS011;37534;39.772;2.718;2022-10-16T04:49:16;3.03;;;1.35;;
51459;SDS011;37534;39.772;2.718;2022-10-16T04:51:41;2.38;;;1.45;;
51459;SDS011;37534;39.772;2.718;2022-10-16T04:54:08;1.63;;;1.48;;
51459;SDS011;37534;39.772;2.718;2022-10-16T04:56:34;6.20;;;1.60;;
51459;SDS011;37534;39.772;2.718;2022-10-16T04:59:05;6.07;;;1.40;;
51459;SDS011;37534;39.772;2.718;2022-10-16T05:01:30;4.03;;;1.48;;
51459;SDS011;37534;39.772;2.718;2022-10-16T05:03:56;7.43;;;1.58;;
51459;SDS011;37534;39.772;2.718;2022-10-16T05:06:22;1.25;;;1.15;;
51459;SDS011;37534;39.772;2.718;2022-10-16T05:08:48;1.60;;;1.30;;
51459;SDS011;37534;39.772;2.718;2022-10-16T05:11:14;3.33;;;1.42;;
51459;SDS011;37534;39.772;2.718;2022-10-16T05:13:39;3.83;;;1.17;;
51459;SDS011;37534;39.772;2.718;2022-10-16T05:16:05;3.50;;;1.70;;
51459;SDS011;37534;39.772;2.718;2022-10-16T05:18:31;4.30;;;1.40;;
51459;SDS011;37534;39.772;2.718;2022-10-16T05:20:56;6.15;;;1.30;;
51459;SDS011;37534;39.772;2.718;2022-10-16T05:23:22;3.33;;;1.60;;
51459;SDS011;37534;39.772;2.718;2022-10-16T05:25:57;3.22;;;1.80;;
51459;SDS011;37534;39.772;2.718;2022-10-16T05:28:25;6.82;;;2.17;;
51459;SDS011;37534;39.772;2.718;2022-10-16T05:30:51;2.30;;;1.38;;
51459;SDS011;37534;39.772;2.718;2022-10-16T05:33:17;4.13;;;2.08;;
51459;SDS011;37534;39.772;2.718;2022-10-16T05:35:45;1.50;;;1.30;;
51459;SDS011;37534;39.772;2.718;2022-10-16T05:38:10;5.55;;;2.03;;
51459;SDS011;37534;39.772;2.718;2022-10-16T05:40:36;7.13;;;1.85;;
51459;SDS011;37534;39.772;2.718;2022-10-16T05:43:01;2.95;;;1.25;;
51459;SDS011;37534;39.772;2.718;2022-10-16T05:45:27;12.57;;;1.88;;
51459;SDS011;37534;39.772;2.718;2022-10-16T05:47:52;2.08;;;1.52;;
51459;SDS011;37534;39.772;2.718;2022-10-16T05:50:18;1.55;;;1.30;;
51459;SDS011;37534;39.772;2.718;2022-10-16T05:52:43;8.48;;;3.30;;
51459;SDS011;37534;39.772;2.718;2022-10-16T05:55:09;5.95;;;2.58;;
51459;SDS011;37534;39.772;2.718;2022-10-16T05:57:34;11.20;;;3.47;;
51459;SDS011;37534;39.772;2.718;2022-10-16T06:00:00;11.38;;;4.38;;
51459;SDS011;37534;39.772;2.718;2022-10-16T06:02:25;4.53;;;2.60;;
51459;SDS011;37534;39.772;2.718;2022-10-16T06:04:51;3.50;;;2.10;;
51459;SDS011;37534;39.772;2.718;2022-10-16T06:07:18;9.38;;;2.58;;
51459;SDS011;37534;39.772;2.718;2022-10-16T06:09:47;16.90;;;3.70;;
51459;SDS011;37534;39.772;2.718;2022-10-16T06:12:13;7.00;;;4.13;;
51459;SDS011;37534;39.772;2.718;2022-10-16T06:14:39;9.65;;;4.68;;
51459;SDS011;37534;39.772;2.718;2022-10-16T06:17:04;5.32;;;3.83;;
51459;SDS011;37534;39.772;2.718;2022-10-16T06:19:30;10.25;;;2.92;;
51459;SDS011;37534;39.772;2.718;2022-10-16T06:21:56;6.40;;;3.92;;
51459;SDS011;37534;39.772;2.718;2022-10-16T06:24:23;13.15;;;5.05;;
51459;SDS011;37534;39.772;2.718;2022-10-16T06:26:49;6.45;;;3.95;;
51459;SDS011;37534;39.772;2.718;2022-10-16T06:29:14;5.65;;;3.75;;
51459;SDS011;37534;39.772;2.718;2022-10-16T06:31:41;5.68;;;3.42;;
51459;SDS011;37534;39.772;2.718;2022-10-16T06:34:10;14.93;;;3.47;;
51459;SDS011;37534;39.772;2.718;2022-10-16T06:36:37;9.48;;;5.28;;
51459;SDS011;37534;39.772;2.718;2022-10-16T06:39:03;15.05;;;4.30;;
51459;SDS011;37534;39.772;2.718;2022-10-16T06:41:30;51.28;;;24.25;;
51459;SDS011;37534;39.772;2.718;2022-10-16T06:43:55;37.53;;;18.90;;
51459;SDS011;37534;39.772;2.718;2022-10-16T06:46:23;52.08;;;31.98;;
51459;SDS011;37534;39.772;2.718;2022-10-16T06:48:49;44.13;;;29.60;;
51459;SDS011;37534;39.772;2.718;2022-10-16T06:51:19;57.50;;;32.85;;
51459;SDS011;37534;39.772;2.718;2022-10-16T06:53:47;52.58;;;28.92;;
51459;SDS011;37534;39.772;2.718;2022-10-16T06:56:15;21.77;;;13.45;;
51459;SDS011;37534;39.772;2.718;2022-10-16T06:58:51;28.23;;;14.35;;
51459;SDS011;37534;39.772;2.718;2022-10-16T07:01:20;18.40;;;12.15;;
51459;SDS011;37534;39.772;2.718;2022-10-16T07:03:48;22.42;;;12.88;;
51459;SDS011;37534;39.772;2.718;2022-10-16T07:06:15;27.33;;;15.32;;
51459;SDS011;37534;39.772;2.718;2022-10-16T07:08:42;38.85;;;13.95;;
51459;SDS011;37534;39.772;2.718;2022-10-16T07:11:20;29.90;;;14.50;;
51459;SDS011;37534;39.772;2.718;2022-10-16T07:13:47;34.85;;;16.92;;
51459;SDS011;37534;39.772;2.718;2022-10-16T07:16:16;28.83;;;16.38;;
51459;SDS011;37534;39.772;2.718;2022-10-16T07:18:44;26.85;;;12.85;;
51459;SDS011;37534;39.772;2.718;2022-10-16T07:21:12;29.15;;;17.80;;
51459;SDS011;37534;39.772;2.718;2022-10-16T07:23:39;37.28;;;18.55;;
51459;SDS011;37534;39.772;2.718;2022-10-16T07:26:05;20.90;;;13.85;;
51459;SDS011;37534;39.772;2.718;2022-10-16T07:28:32;27.85;;;15.98;;
51459;SDS011;37534;39.772;2.718;2022-10-16T07:31:02;26.83;;;19.60;;
51459;SDS011;37534;39.772;2.718;2022-10-16T07:33:29;21.97;;;17.80;;
51459;SDS011;37534;39.772;2.718;2022-10-16T07:35:55;29.95;;;16.13;;
51459;SDS011;37534;39.772;2.718;2022-10-16T07:38:21;15.02;;;8.45;;
51459;SDS011;37534;39.772;2.718;2022-10-16T07:40:47;32.78;;;13.60;;
51459;SDS011;37534;39.772;2.718;2022-10-16T07:43:14;15.88;;;10.80;;
51459;SDS011;37534;39.772;2.718;2022-10-16T07:45:46;25.95;;;11.25;;
51459;SDS011;37534;39.772;2.718;2022-10-16T07:48:13;32.22;;;18.27;;
51459;SDS011;37534;39.772;2.718;2022-10-16T07:50:39;23.63;;;14.45;;
51459;SDS011;37534;39.772;2.718;2022-10-16T07:53:04;22.77;;;13.55;;
51459;SDS011;37534;39.772;2.718;2022-10-16T07:55:30;17.80;;;10.25;;
51459;SDS011;37534;39.772;2.718;2022-10-16T07:57:55;22.17;;;11.82;;
51459;SDS011;37534;39.772;2.718;2022-10-16T08:00:21;20.90;;;13.20;;
51459;SDS011;37534;39.772;2.718;2022-10-16T08:02:46;23.92;;;13.00;;
51459;SDS011;37534;39.772;2.718;2022-10-16T08:05:12;22.77;;;12.73;;
51459;SDS011;37534;39.772;2.718;2022-10-16T08:07:37;24.15;;;11.02;;
51459;SDS011;37534;39.772;2.718;2022-10-16T08:10:03;22.83;;;14.20;;
51459;SDS011;37534;39.772;2.718;2022-10-16T08:12:29;24.60;;;15.68;;
51459;SDS011;37534;39.772;2.718;2022-10-16T08:14:54;33.80;;;24.05;;
51459;SDS011;37534;39.772;2.718;2022-10-16T08:17:20;29.15;;;17.10;;
51459;SDS011;37534;39.772;2.718;2022-10-16T08:19:46;39.10;;;24.65;;
51459;SDS011;37534;39.772;2.718;2022-10-16T08:22:12;45.80;;;30.98;;
51459;SDS011;37534;39.772;2.718;2022-10-16T08:24:41;61.78;;;31.48;;
51459;SDS011;37534;39.772;2.718;2022-10-16T08:27:06;50.63;;;26.13;;
51459;SDS011;37534;39.772;2.718;2022-10-16T08:29:34;24.92;;;8.70;;
51459;SDS011;37534;39.772;2.718;2022-10-16T08:31:59;49.60;;;27.33;;
51459;SDS011;37534;39.772;2.718;2022-10-16T08:34:25;105.85;;;58.67;;
51459;SDS011;37534;39.772;2.718;2022-10-16T08:36:52;64.03;;;36.92;;
51459;SDS011;37534;39.772;2.718;2022-10-16T08:39:19;45.00;;;27.88;;
51459;SDS011;37534;39.772;2.718;2022-10-16T08:41:57;49.53;;;31.17;;
51459;SDS011;37534;39.772;2.718;2022-10-16T08:50:17;34.22;;;22.73;;
51459;SDS011;37534;39.772;2.718;2022-10-16T08:52:47;41.45;;;24.42;;
51459;SDS011;37534;39.772;2.718;2022-10-16T08:55:30;30.48;;;18.30;;
51459;SDS011;37534;39.772;2.718;2022-10-16T08:58:27;31.05;;;16.42;;
51459;SDS011;37534;39.772;2.718;2022-10-16T09:00:54;41.00;;;17.15;;
51459;SDS011;37534;39.772;2.718;2022-10-16T09:11:51;42.00;;;15.27;;
51459;SDS011;37534;39.772;2.718;2022-10-16T09:14:29;16.52;;;13.57;;
51459;SDS011;37534;39.772;2.718;2022-10-16T09:17:25;20.98;;;13.85;;
51459;SDS011;37534;39.772;2.718;2022-10-16T09:22:45;20.20;;;9.63;;
51459;SDS011;37534;39.772;2.718;2022-10-16T09:25:12;16.85;;;8.55;;
51459;SDS011;37534;39.772;2.718;2022-10-16T09:27:45;13.35;;;9.15;;
51459;SDS011;37534;39.772;2.718;2022-10-16T09:30:17;7.25;;;6.40;;
51459;SDS011;37534;39.772;2.718;2022-10-16T09:32:45;19.10;;;7.15;;
51459;SDS011;37534;39.772;2.718;2022-10-16T09:35:19;10.53;;;6.17;;
51459;SDS011;37534;39.772;2.718;2022-10-16T09:37:49;15.43;;;4.93;;
51459;SDS011;37534;39.772;2.718;2022-10-16T09:43:19;13.90;;;6.05;;
51459;SDS011;37534;39.772;2.718;2022-10-16T09:46:01;12.50;;;5.47;;
51459;SDS011;37534;39.772;2.718;2022-10-16T09:48:54;11.48;;;4.82;;
51459;SDS011;37534;39.772;2.718;2022-10-16T09:51:25;16.83;;;5.32;;
51459;SDS011;37534;39.772;2.718;2022-10-16T09:54:02;16.30;;;5.55;;
51459;SDS011;37534;39.772;2.718;2022-10-16T09:56:39;11.50;;;5.30;;
51459;SDS011;37534;39.772;2.718;2022-10-16T09:59:10;9.73;;;5.07;;
51459;SDS011;37534;39.772;2.718;2022-10-16T10:01:38;7.95;;;5.25;;
51459;SDS011;37534;39.772;2.718;2022-10-16T10:04:12;9.50;;;5.38;;
51459;SDS011;37534;39.772;2.718;2022-10-16T10:06:45;8.30;;;3.10;;
51459;SDS011;37534;39.772;2.718;2022-10-16T10:09:17;4.95;;;2.70;;
51459;SDS011;37534;39.772;2.718;2022-10-16T10:17:11;7.25;;;3.60;;
51459;SDS011;37534;39.772;2.718;2022-10-16T10:19:40;12.88;;;4.75;;
51459;SDS011;37534;39.772;2.718;2022-10-16T10:33:39;11.57;;;2.13;;
51459;SDS011;37534;39.772;2.718;2022-10-16T10:40:45;5.50;;;5.00;;
51459;SDS011;37534;39.772;2.718;2022-10-16T10:45:58;3.42;;;1.75;;
51459;SDS011;37534;39.772;2.718;2022-10-16T10:51:30;4.75;;;2.25;;
51459;SDS011;37534;39.772;2.718;2022-10-16T10:54:12;2.53;;;1.60;;
51459;SDS011;37534;39.772;2.718;2022-10-16T11:13:30;2.80;;;2.30;;
51459;SDS011;37534;39.772;2.718;2022-10-16T11:16:17;5.28;;;2.80;;
51459;SDS011;37534;39.772;2.718;2022-10-16T11:19:11;3.67;;;2.28;;
51459;SDS011;37534;39.772;2.718;2022-10-16T11:21:43;6.68;;;2.40;;
51459;SDS011;37534;39.772;2.718;2022-10-16T11:24:30;3.40;;;1.63;;
51459;SDS011;37534;39.772;2.718;2022-10-16T11:27:08;4.10;;;1.70;;
51459;SDS011;37534;39.772;2.718;2022-10-16T11:29:43;5.78;;;2.28;;
51459;SDS011;37534;39.772;2.718;2022-10-16T11:32:34;4.65;;;1.90;;
51459;SDS011;37534;39.772;2.718;2022-10-16T11:35:12;3.65;;;3.22;;
51459;SDS011;37534;39.772;2.718;2022-10-16T11:37:47;2.53;;;1.58;;
51459;SDS011;37534;39.772;2.718;2022-10-16T11:40:31;8.98;;;1.70;;
51459;SDS011;37534;39.772;2.718;2022-10-16T11:43:34;2.13;;;1.55;;
51459;SDS011;37534;39.772;2.718;2022-10-16T11:46:17;4.03;;;1.95;;
51459;SDS011;37534;39.772;2.718;2022-10-16T11:48:50;5.15;;;2.22;;
51459;SDS011;37534;39.772;2.718;2022-10-16T11:51:37;5.35;;;1.95;;
51459;SDS011;37534;39.772;2.718;2022-10-16T11:54:28;4.25;;;2.17;;
51459;SDS011;37534;39.772;2.718;2022-10-16T12:00:08;5.60;;;2.70;;
51459;SDS011;37534;39.772;2.718;2022-10-16T12:08:01;4.90;;;1.88;;
51459;SDS011;37534;39.772;2.718;2022-10-16T12:10:41;4.18;;;1.80;;
51459;SDS011;37534;39.772;2.718;2022-10-16T12:13:34;4.18;;;1.17;;
51459;SDS011;37534;39.772;2.718;2022-10-16T12:18:40;4.28;;;1.80;;
51459;SDS011;37534;39.772;2.718;2022-10-16T12:21:10;2.88;;;1.52;;
51459;SDS011;37534;39.772;2.718;2022-10-16T12:26:23;1.70;;;1.27;;
51459;SDS011;37534;39.772;2.718;2022-10-16T12:28:54;2.03;;;1.38;;
51459;SDS011;37534;39.772;2.718;2022-10-16T12:31:21;8.70;;;2.25;;
51459;SDS011;37534;39.772;2.718;2022-10-16T12:34:06;9.55;;;1.73;;
51459;SDS011;37534;39.772;2.718;2022-10-16T12:36:43;4.80;;;1.50;;
51459;SDS011;37534;39.772;2.718;2022-10-16T12:39:16;2.25;;;1.60;;
51459;SDS011;37534;39.772;2.718;2022-10-16T12:42:05;3.10;;;1.75;;
51459;SDS011;37534;39.772;2.718;2022-10-16T12:44:53;2.97;;;1.52;;
51459;SDS011;37534;39.772;2.718;2022-10-16T12:49:57;3.22;;;1.27;;
51459;SDS011;37534;39.772;2.718;2022-10-16T12:54:55;1.92;;;1.30;;
51459;SDS011;37534;39.772;2.718;2022-10-16T13:00:18;4.43;;;1.50;;
51459;SDS011;37534;39.772;2.718;2022-10-16T13:05:26;4.70;;;1.75;;
51459;SDS011;37534;39.772;2.718;2022-10-16T13:11:05;5.95;;;1.77;;
51459;SDS011;37534;39.772;2.718;2022-10-16T13:16:49;6.20;;;1.40;;
51459;SDS011;37534;39.772;2.718;2022-10-16T13:19:24;9.35;;;1.77;;
51459;SDS011;37534;39.772;2.718;2022-10-16T13:31:03;4.70;;;1.67;;
51459;SDS011;37534;39.772;2.718;2022-10-16T13:33:17;3.42;;;1.38;;
51459;SDS011;37534;39.772;2.718;2022-10-16T13:35:57;3.88;;;1.65;;
51459;SDS011;37534;39.772;2.718;2022-10-16T13:40:55;5.10;;;2.22;;
51459;SDS011;37534;39.772;2.718;2022-10-16T13:43:28;4.03;;;1.90;;
51459;SDS011;37534;39.772;2.718;2022-10-16T13:46:03;5.38;;;1.85;;
51459;SDS011;37534;39.772;2.718;2022-10-16T13:48:31;5.78;;;2.75;;
51459;SDS011;37534;39.772;2.718;2022-10-16T13:51:19;8.27;;;1.98;;
51459;SDS011;37534;39.772;2.718;2022-10-16T13:53:45;6.95;;;1.77;;
51459;SDS011;37534;39.772;2.718;2022-10-16T13:56:12;5.68;;;2.53;;
51459;SDS011;37534;39.772;2.718;2022-10-16T13:58:46;7.75;;;1.73;;
51459;SDS011;37534;39.772;2.718;2022-10-16T14:01:25;4.70;;;1.55;;
51459;SDS011;37534;39.772;2.718;2022-10-16T14:03:59;3.40;;;1.73;;
51459;SDS011;37534;39.772;2.718;2022-10-16T14:06:27;3.40;;;1.88;;
51459;SDS011;37534;39.772;2.718;2022-10-16T14:09:06;7.97;;;1.98;;
51459;SDS011;37534;39.772;2.718;2022-10-16T14:11:35;3.13;;;1.67;;
51459;SDS011;37534;39.772;2.718;2022-10-16T14:14:10;2.80;;;1.63;;
51459;SDS011;37534;39.772;2.718;2022-10-16T14:16:37;9.98;;;1.90;;
51459;SDS011;37534;39.772;2.718;2022-10-16T14:19:13;6.10;;;1.73;;
51459;SDS011;37534;39.772;2.718;2022-10-16T14:21:44;6.00;;;2.30;;
51459;SDS011;37534;39.772;2.718;2022-10-16T14:24:52;5.82;;;1.70;;
51459;SDS011;37534;39.772;2.718;2022-10-16T14:26:59;4.65;;;2.05;;
51459;SDS011;37534;39.772;2.718;2022-10-16T14:29:26;5.68;;;2.00;;
51459;SDS011;37534;39.772;2.718;2022-10-16T14:34:42;5.50;;;3.10;;
51459;SDS011;37534;39.772;2.718;2022-10-16T14:37:09;5.80;;;2.60;;
51459;SDS011;37534;39.772;2.718;2022-10-16T14:39:49;4.03;;;1.83;;
51459;SDS011;37534;39.772;2.718;2022-10-16T14:42:16;7.00;;;2.40;;
51459;SDS011;37534;39.772;2.718;2022-10-16T14:44:44;5.82;;;1.52;;
51459;SDS011;37534;39.772;2.718;2022-10-16T14:47:14;4.68;;;2.20;;
51459;SDS011;37534;39.772;2.718;2022-10-16T14:49:47;2.85;;;1.70;;
51459;SDS011;37534;39.772;2.718;2022-10-16T14:52:13;4.05;;;1.83;;
51459;SDS011;37534;39.772;2.718;2022-10-16T14:54:39;6.45;;;2.55;;
51459;SDS011;37534;39.772;2.718;2022-10-16T14:57:05;3.38;;;2.08;;
51459;SDS011;37534;39.772;2.718;2022-10-16T14:59:40;5.30;;;2.22;;
51459;SDS011;37534;39.772;2.718;2022-10-16T15:02:16;3.55;;;1.88;;
51459;SDS011;37534;39.772;2.718;2022-10-16T15:04:47;5.93;;;2.05;;
51459;SDS011;37534;39.772;2.718;2022-10-16T15:07:13;3.67;;;2.28;;
51459;SDS011;37534;39.772;2.718;2022-10-16T15:09:39;2.40;;;1.45;;
51459;SDS011;37534;39.772;2.718;2022-10-16T15:12:04;2.53;;;2.13;;
51459;SDS011;37534;39.772;2.718;2022-10-16T15:14:30;3.78;;;2.20;;
51459;SDS011;37534;39.772;2.718;2022-10-16T15:16:57;3.90;;;2.15;;
51459;SDS011;37534;39.772;2.718;2022-10-16T15:19:23;5.60;;;2.20;;
51459;SDS011;37534;39.772;2.718;2022-10-16T15:21:49;5.88;;;2.30;;
51459;SDS011;37534;39.772;2.718;2022-10-16T15:24:14;6.35;;;2.10;;
51459;SDS011;37534;39.772;2.718;2022-10-16T15:26:40;5.28;;;2.00;;
51459;SDS011;37534;39.772;2.718;2022-10-16T15:29:06;4.55;;;2.38;;
51459;SDS011;37534;39.772;2.718;2022-10-16T15:31:32;2.58;;;1.90;;
51459;SDS011;37534;39.772;2.718;2022-10-16T15:33:58;6.80;;;2.00;;
51459;SDS011;37534;39.772;2.718;2022-10-16T15:36:29;3.63;;;2.03;;
51459;SDS011;37534;39.772;2.718;2022-10-16T15:39:02;4.18;;;2.00;;
51459;SDS011;37534;39.772;2.718;2022-10-16T15:41:37;4.00;;;2.25;;
51459;SDS011;37534;39.772;2.718;2022-10-16T15:44:03;3.13;;;1.98;;
51459;SDS011;37534;39.772;2.718;2022-10-16T15:46:28;8.02;;;2.38;;
51459;SDS011;37534;39.772;2.718;2022-10-16T15:48:57;2.25;;;1.65;;
51459;SDS011;37534;39.772;2.718;2022-10-16T15:51:23;8.73;;;2.15;;
51459;SDS011;37534;39.772;2.718;2022-10-16T15:53:52;5.63;;;2.42;;
51459;SDS011;37534;39.772;2.718;2022-10-16T15:56:18;7.43;;;2.38;;
51459;SDS011;37534;39.772;2.718;2022-10-16T15:58:44;4.57;;;2.15;;
51459;SDS011;37534;39.772;2.718;2022-10-16T16:01:10;5.57;;;2.33;;
51459;SDS011;37534;39.772;2.718;2022-10-16T16:03:37;6.22;;;2.33;;
51459;SDS011;37534;39.772;2.718;2022-10-16T16:06:06;8.73;;;2.15;;
51459;SDS011;37534;39.772;2.718;2022-10-16T16:08:33;4.20;;;2.28;;
51459;SDS011;37534;39.772;2.718;2022-10-16T16:10:59;3.40;;;2.10;;
51459;SDS011;37534;39.772;2.718;2022-10-16T16:13:27;6.07;;;2.75;;
51459;SDS011;37534;39.772;2.718;2022-10-16T16:15:52;5.97;;;2.83;;
51459;SDS011;37534;39.772;2.718;2022-10-16T16:18:18;10.30;;;2.90;;
51459;SDS011;37534;39.772;2.718;2022-10-16T16:20:45;6.63;;;3.20;;
51459;SDS011;37534;39.772;2.718;2022-10-16T16:23:10;5.72;;;3.75;;
51459;SDS011;37534;39.772;2.718;2022-10-16T16:25:36;7.70;;;3.08;;
51459;SDS011;37534;39.772;2.718;2022-10-16T16:28:01;7.75;;;3.53;;
51459;SDS011;37534;39.772;2.718;2022-10-16T16:30:27;8.05;;;3.15;;
51459;SDS011;37534;39.772;2.718;2022-10-16T16:32:54;3.83;;;2.53;;
51459;SDS011;37534;39.772;2.718;2022-10-16T16:35:21;5.68;;;2.47;;
51459;SDS011;37534;39.772;2.718;2022-10-16T16:37:47;7.20;;;2.90;;
51459;SDS011;37534;39.772;2.718;2022-10-16T16:40:13;6.35;;;2.55;;
51459;SDS011;37534;39.772;2.718;2022-10-16T16:42:38;5.88;;;2.60;;
51459;SDS011;37534;39.772;2.718;2022-10-16T16:45:04;8.30;;;2.95;;
51459;SDS011;37534;39.772;2.718;2022-10-16T16:47:30;6.72;;;2.78;;
51459;SDS011;37534;39.772;2.718;2022-10-16T16:49:56;8.90;;;3.03;;
51459;SDS011;37534;39.772;2.718;2022-10-16T16:52:21;9.52;;;3.70;;
51459;SDS011;37534;39.772;2.718;2022-10-16T16:54:47;8.98;;;3.00;;
51459;SDS011;37534;39.772;2.718;2022-10-16T16:57:19;6.95;;;2.63;;
51459;SDS011;37534;39.772;2.718;2022-10-16T16:59:45;6.97;;;3.15;;
51459;SDS011;37534;39.772;2.718;2022-10-16T17:02:11;8.23;;;3.58;;